| time (UTC) | temp F | wind direction | speed MPH | gust MPH | rain 1hr in | rain 24hr in | rain mn in | humidity % | barometer mb |
| 20260505195540 | 55 | 17 | 5.0 | 14.0 | 0.00 | 0.00 | 0.00 | 72 | 1011.5 |
| 20260505195041 | 56 | 320 | 4.0 | 14.0 | 0.00 | 0.00 | 0.00 | 72 | 1011.5 |
| 20260505194556 | 56 | 45 | 3.0 | 12.0 | 0.00 | 0.00 | 0.00 | 72 | 1011.3 |
| 20260505194043 | 56 | 342 | 6.0 | 12.0 | 0.00 | 0.00 | 0.00 | 72 | 1011.3 |
| 20260505193541 | 56 | 298 | 4.0 | 14.0 | 0.00 | 0.00 | 0.00 | 72 | 1011.3 |
| 20260505193103 | 56 | 348 | 4.0 | 14.0 | 0.00 | 0.00 | 0.00 | 73 | 1011.2 |
| 20260505192541 | 57 | 355 | 3.0 | 12.0 | 0.00 | 0.00 | 0.00 | 73 | 1011.2 |
| 20260505192042 | 57 | 14 | 3.0 | 9.0 | 0.00 | 0.00 | 0.00 | 73 | 1011.1 |
| 20260505191543 | 57 | 346 | 3.0 | 11.0 | 0.00 | 0.00 | 0.00 | 72 | 1011.0 |
| 20260505191041 | 57 | 346 | 4.0 | 11.0 | 0.00 | 0.00 | 0.00 | 72 | 1011.0 |
| 20260505190540 | 57 | 15 | 3.0 | 10.0 | 0.00 | 0.00 | 0.00 | 72 | 1011.0 |
| 20260505190050 | 57 | 5 | 4.0 | 14.0 | 0.00 | 0.00 | 0.00 | 71 | 1010.9 |
| 20260505185542 | 57 | 348 | 5.0 | 14.0 | 0.00 | 0.00 | 0.00 | 71 | 1010.9 |
| 20260505185040 | 57 | 333 | 6.0 | 14.0 | 0.00 | 0.00 | 0.00 | 70 | 1010.9 |
| 20260505184555 | 57 | 5 | 3.0 | 11.0 | 0.00 | 0.00 | 0.00 | 70 | 1010.8 |
| 20260505184043 | 58 | 343 | 2.0 | 5.0 | 0.00 | 0.00 | 0.00 | 70 | 1010.9 |
| 20260505183541 | 58 | 5 | 1.0 | 5.0 | 0.00 | 0.00 | 0.00 | 70 | 1010.8 |
| 20260505183044 | 58 | 343 | 2.0 | 5.0 | 0.00 | 0.00 | 0.00 | 71 | 1010.7 |
| 20260505182540 | 58 | 342 | 1.0 | 6.0 | 0.00 | 0.00 | 0.00 | 71 | 1010.8 |
| 20260505182037 | 58 | 13 | 1.0 | 6.0 | 0.00 | 0.00 | 0.00 | 71 | 1010.7 |
| 20260505181548 | 58 | 285 | 0.0 | 3.0 | 0.00 | 0.00 | 0.00 | 71 | 1010.8 |
| 20260505181041 | 58 | 0 | 0.0 | 5.0 | 0.00 | 0.00 | 0.00 | 70 | 1010.8 |
| 20260505180540 | 58 | 338 | 1.0 | 6.0 | 0.00 | 0.00 | 0.00 | 70 | 1010.8 |
| 20260505180051 | 58 | 20 | 2.0 | 6.0 | 0.00 | 0.00 | 0.00 | 70 | 1010.8 |
| 20260505175541 | 58 | 5 | 1.0 | 5.0 | 0.00 | 0.00 | 0.00 | 70 | 1010.8 |
| 20260505175042 | 58 | 351 | 1.0 | 6.0 | 0.00 | 0.00 | 0.00 | 70 | 1010.8 |
| 20260505174550 | 58 | 319 | 2.0 | 7.0 | 0.00 | 0.00 | 0.00 | 70 | 1010.8 |
| 20260505174043 | 58 | 298 | 2.0 | 7.0 | 0.00 | 0.00 | 0.00 | 70 | 1010.7 |
| 20260505173542 | 58 | 267 | 3.0 | 7.0 | 0.00 | 0.00 | 0.00 | 70 | 1010.8 |
| 20260505173049 | 59 | 355 | 2.0 | 9.0 | 0.00 | 0.00 | 0.00 | 70 | 1010.8 |
| 20260505172541 | 59 | 294 | 2.0 | 9.0 | 0.00 | 0.00 | 0.00 | 69 | 1010.8 |
| 20260505172040 | 59 | 350 | 2.0 | 9.0 | 0.00 | 0.00 | 0.00 | 69 | 1010.9 |
| 20260505171553 | 59 | 289 | 3.0 | 9.0 | 0.00 | 0.00 | 0.00 | 69 | 1010.9 |
| 20260505171041 | 59 | 0 | 2.0 | 10.0 | 0.00 | 0.00 | 0.00 | 69 | 1010.9 |
| 20260505170540 | 59 | 281 | 3.0 | 10.0 | 0.00 | 0.00 | 0.00 | 69 | 1010.8 |
| 20260505170051 | 59 | 300 | 2.0 | 8.0 | 0.00 | 0.00 | 0.00 | 69 | 1010.8 |
| 20260505165540 | 59 | 273 | 2.0 | 9.0 | 0.00 | 0.00 | 0.00 | 70 | 1010.8 |
| 20260505165037 | 59 | 293 | 3.0 | 9.0 | 0.00 | 0.00 | 0.00 | 70 | 1010.9 |
| 20260505164551 | 59 | 288 | 3.0 | 9.0 | 0.00 | 0.00 | 0.00 | 69 | 1010.9 |
| 20260505164041 | 59 | 286 | 2.0 | 8.0 | 0.00 | 0.00 | 0.00 | 70 | 1010.8 |
| 20260505163537 | 59 | 279 | 3.0 | 8.0 | 0.00 | 0.00 | 0.00 | 69 | 1010.8 |
| 20260505163043 | 59 | 290 | 2.0 | 9.0 | 0.00 | 0.00 | 0.00 | 69 | 1010.9 |
| 20260505162540 | 60 | 281 | 4.0 | 9.0 | 0.00 | 0.00 | 0.00 | 69 | 1010.8 |
| 20260505162041 | 60 | 314 | 4.0 | 9.0 | 0.00 | 0.00 | 0.00 | 68 | 1011.0 |
| 20260505161601 | 60 | 288 | 4.0 | 8.0 | 0.00 | 0.00 | 0.00 | 68 | 1010.8 |
| 20260505161041 | 60 | 282 | 2.0 | 8.0 | 0.00 | 0.00 | 0.00 | 67 | 1010.8 |
| 20260505160541 | 60 | 286 | 3.0 | 7.0 | 0.00 | 0.00 | 0.00 | 68 | 1010.9 |
| 20260505153101 | 60 | 0 | 3.0 | 10.0 | 0.00 | 0.00 | 0.00 | 67 | 1010.8 |
| 20260505152544 | 61 | 276 | 4.0 | 10.0 | 0.00 | 0.00 | 0.00 | 67 | 1011.0 |
| 20260505152042 | 60 | 225 | 2.0 | 6.0 | 0.00 | 0.00 | 0.00 | 66 | 1010.8 |
| 20260505151546 | 61 | 0 | 1.0 | 6.0 | 0.00 | 0.00 | 0.00 | 66 | 1011.0 |
| 20260505151044 | 60 | 324 | 2.0 | 7.0 | 0.00 | 0.00 | 0.00 | 66 | 1011.0 |
| 20260505150542 | 60 | 292 | 1.0 | 7.0 | 0.00 | 0.00 | 0.00 | 67 | 1011.0 |
| 20260505140541 | 59 | 349 | 1.0 | 4.0 | 0.00 | 0.00 | 0.00 | 69 | 1011.2 |
| 20260505125040 | 60 | 360 | 2.0 | 9.0 | 0.00 | 0.00 | 0.00 | 64 | 1011.5 |
| 20260505124550 | 61 | 83 | 4.0 | 9.0 | 0.00 | 0.00 | 0.00 | 62 | 1011.5 |
| 20260505124041 | 61 | 340 | 2.0 | 10.0 | 0.00 | 0.00 | 0.00 | 65 | 1011.5 |
| 20260505123546 | 61 | 344 | 3.0 | 10.0 | 0.00 | 0.00 | 0.00 | 64 | 1011.6 |
| 20260505123053 | 61 | 339 | 2.0 | 8.0 | 0.00 | 0.00 | 0.00 | 65 | 1011.6 |
| 20260505122541 | 61 | 22 | 2.0 | 9.0 | 0.00 | 0.00 | 0.00 | 65 | 1011.6 |
| 20260505122041 | 61 | 355 | 2.0 | 9.0 | 0.00 | 0.00 | 0.00 | 65 | 1011.6 |
| 20260505121550 | 61 | 346 | 4.0 | 9.0 | 0.00 | 0.00 | 0.00 | 64 | 1011.5 |
| 20260505121045 | 61 | 32 | 2.0 | 8.0 | 0.00 | 0.00 | 0.00 | 64 | 1011.6 |
| 20260505120540 | 62 | 360 | 2.0 | 9.0 | 0.00 | 0.00 | 0.00 | 64 | 1011.5 |
| 20260505120056 | 61 | 343 | 4.0 | 9.0 | 0.00 | 0.00 | 0.00 | 64 | 1011.5 |
| 20260505115541 | 61 | 17 | 3.0 | 10.0 | 0.00 | 0.00 | 0.00 | 64 | 1011.6 |
| 20260505115040 | 61 | 57 | 3.0 | 10.0 | 0.00 | 0.00 | 0.00 | 65 | 1011.5 |
| 20260505114551 | 61 | 335 | 4.0 | 10.0 | 0.00 | 0.00 | 0.00 | 64 | 1011.5 |
| 20260505114041 | 61 | 329 | 2.0 | 9.0 | 0.00 | 0.00 | 0.00 | 66 | 1011.6 |
| 20260505113545 | 62 | 22 | 3.0 | 8.0 | 0.00 | 0.00 | 0.00 | 63 | 1011.6 |
| 20260505113051 | 64 | 355 | 3.0 | 9.0 | 0.00 | 0.00 | 0.00 | 62 | 1011.7 |
| 20260505112541 | 64 | 0 | 3.0 | 9.0 | 0.00 | 0.00 | 0.00 | 65 | 1011.7 |
| 20260505112041 | 63 | 343 | 2.0 | 6.0 | 0.00 | 0.00 | 0.00 | 67 | 1011.8 |
| 20260505111551 | 61 | 284 | 2.0 | 8.0 | 0.00 | 0.00 | 0.00 | 69 | 1011.8 |
| 20260505111041 | 61 | 318 | 3.0 | 8.0 | 0.00 | 0.00 | 0.00 | 66 | 1011.8 |
| 20260505110541 | 61 | 5 | 0.0 | 5.0 | 0.00 | 0.00 | 0.00 | 70 | 1011.9 |
| 20260505102045 | 57 | 24 | 0.0 | 8.0 | 0.00 | 0.00 | 0.00 | 76 | 1012.3 |
| 20260505101553 | 57 | 0 | 1.0 | 9.0 | 0.00 | 0.00 | 0.00 | 76 | 1012.4 |
| 20260505101041 | 58 | 0 | 1.0 | 9.0 | 0.00 | 0.00 | 0.00 | 76 | 1012.4 |
| 20260505100543 | 58 | 0 | 1.0 | 7.0 | 0.00 | 0.00 | 0.00 | 77 | 1012.3 |
| 20260505100053 | 58 | 34 | 0.0 | 4.0 | 0.00 | 0.00 | 0.00 | 79 | 1012.3 |
| 20260505095541 | 58 | 0 | 0.0 | 5.0 | 0.00 | 0.00 | 0.00 | 79 | 1012.3 |
| 20260505095041 | 56 | 0 | 0.0 | 5.0 | 0.00 | 0.00 | 0.00 | 81 | 1012.4 |
| 20260505094549 | 55 | 12 | 0.0 | 5.0 | 0.00 | 0.00 | 0.00 | 84 | 1012.5 |
| 20260505094041 | 54 | 0 | 0.0 | 4.0 | 0.00 | 0.00 | 0.00 | 84 | 1012.5 |
| 20260505093541 | 53 | 0 | 0.0 | 4.0 | 0.00 | 0.00 | 0.00 | 84 | 1012.7 |
| 20260505093050 | 53 | 0 | 0.0 | 4.0 | 0.00 | 0.00 | 0.00 | 84 | 1012.7 |
| 20260505092541 | 53 | 327 | 0.0 | 6.0 | 0.00 | 0.00 | 0.00 | 83 | 1012.7 |
| 20260505092041 | 53 | 0 | 0.0 | 8.0 | 0.00 | 0.00 | 0.00 | 83 | 1012.7 |
| 20260505091613 | 53 | 360 | 1.0 | 9.0 | 0.00 | 0.00 | 0.00 | 83 | 1012.6 |
| 20260505091042 | 53 | 0 | 2.0 | 9.0 | 0.00 | 0.00 | 0.00 | 83 | 1012.6 |
| 20260505090541 | 53 | 342 | 3.0 | 9.0 | 0.00 | 0.00 | 0.00 | 84 | 1012.7 |
| 20260505090104 | 53 | 336 | 2.0 | 8.0 | 0.00 | 0.00 | 0.00 | 84 | 1012.7 |
| 20260505085540 | 53 | 355 | 3.0 | 8.0 | 0.00 | 0.00 | 0.00 | 85 | 1012.7 |
| 20260505085041 | 53 | 355 | 2.0 | 7.0 | 0.00 | 0.00 | 0.00 | 86 | 1012.7 |
| 20260505084605 | 53 | 344 | 1.0 | 5.0 | 0.00 | 0.00 | 0.00 | 86 | 1012.7 |
| 20260505084040 | 53 | 0 | 0.0 | 4.0 | 0.00 | 0.00 | 0.00 | 87 | 1012.8 |
| 20260505083540 | 53 | 0 | 1.0 | 5.0 | 0.00 | 0.00 | 0.00 | 87 | 1012.7 |
| 20260505083103 | 53 | 0 | 1.0 | 8.0 | 0.00 | 0.00 | 0.00 | 88 | 1012.8 |
| 20260505082542 | 53 | 321 | 1.0 | 8.0 | 0.00 | 0.00 | 0.00 | 88 | 1012.8 |
| 20260505082041 | 53 | 360 | 0.0 | 3.0 | 0.00 | 0.00 | 0.00 | 89 | 1012.8 |
| 20260505081600 | 52 | 0 | 0.0 | 3.0 | 0.00 | 0.00 | 0.00 | 89 | 1012.8 |
| 20260505081043 | 52 | 0 | 0.0 | 3.0 | 0.00 | 0.00 | 0.00 | 89 | 1012.7 |
| 20260505080541 | 52 | 0 | 0.0 | 3.0 | 0.00 | 0.00 | 0.00 | 89 | 1012.8 |
| 20260505080058 | 52 | 0 | 0.0 | 2.0 | 0.00 | 0.00 | 0.00 | 90 | 1012.8 |
| 20260505075542 | 52 | 341 | 0.0 | 2.0 | 0.00 | 0.00 | 0.00 | 90 | 1012.7 |
| 20260505075041 | 52 | 0 | 0.0 | 2.0 | 0.00 | 0.00 | 0.00 | 90 | 1012.7 |
| 20260505074548 | 52 | 0 | 0.0 | 1.0 | 0.00 | 0.00 | 0.00 | 90 | 1012.7 |
| 20260505074041 | 52 | 0 | 0.0 | 1.0 | 0.00 | 0.00 | 0.00 | 90 | 1012.7 |
| 20260505073541 | 52 | 0 | 0.0 | 2.0 | 0.00 | 0.00 | 0.00 | 90 | 1012.8 |
| 20260505073054 | 52 | 0 | 0.0 | 2.0 | 0.00 | 0.00 | 0.00 | 90 | 1012.8 |
| 20260505072541 | 51 | 0 | 0.0 | 3.0 | 0.00 | 0.00 | 0.00 | 90 | 1012.8 |
| 20260505072041 | 51 | 0 | 0.0 | 3.0 | 0.00 | 0.00 | 0.00 | 90 | 1012.8 |
| 20260505071612 | 51 | 0 | 0.0 | 2.0 | 0.00 | 0.00 | 0.00 | 90 | 1012.8 |
| 20260505071044 | 51 | 0 | 0.0 | 2.0 | 0.00 | 0.00 | 0.00 | 90 | 1012.9 |
| 20260505070541 | 51 | 0 | 0.0 | 1.0 | 0.00 | 0.00 | 0.00 | 91 | 1012.9 |
| 20260505070052 | 51 | 0 | 0.0 | 5.0 | 0.00 | 0.00 | 0.00 | 91 | 1012.8 |
| 20260505065541 | 51 | 0 | 1.0 | 5.0 | 0.00 | 0.00 | 0.00 | 91 | 1012.9 |
| 20260505065040 | 51 | 297 | 0.0 | 4.0 | 0.00 | 0.00 | 0.00 | 90 | 1012.8 |
| 20260505064549 | 51 | 0 | 0.0 | 3.0 | 0.00 | 0.00 | 0.00 | 91 | 1012.9 |
| 20260505064040 | 51 | 0 | 0.0 | 4.0 | 0.00 | 0.00 | 0.00 | 91 | 1012.9 |
| 20260505063541 | 51 | 0 | 0.0 | 4.0 | 0.00 | 0.00 | 0.00 | 91 | 1013.0 |
| 20260505063052 | 51 | 0 | 0.0 | 5.0 | 0.00 | 0.00 | 0.00 | 91 | 1013.0 |
| 20260505062541 | 51 | 0 | 2.0 | 5.0 | 0.00 | 0.00 | 0.00 | 91 | 1012.9 |
| 20260505062042 | 51 | 0 | 1.0 | 4.0 | 0.00 | 0.00 | 0.00 | 91 | 1012.8 |
| 20260505061555 | 51 | 0 | 0.0 | 8.0 | 0.00 | 0.00 | 0.00 | 91 | 1012.8 |
| 20260505061041 | 50 | 0 | 0.0 | 8.0 | 0.00 | 0.00 | 0.00 | 91 | 1012.8 |
| 20260505060542 | 50 | 0 | 1.0 | 8.0 | 0.00 | 0.00 | 0.00 | 91 | 1012.9 |
| 20260505055541 | 50 | 0 | 1.0 | 5.0 | 0.00 | 0.00 | 0.00 | 91 | 1012.9 |
| 20260505055041 | 50 | 0 | 0.0 | 5.0 | 0.00 | 0.00 | 0.00 | 91 | 1012.9 |
| 20260505054554 | 50 | 0 | 0.0 | 3.0 | 0.00 | 0.00 | 0.00 | 91 | 1012.9 |
| 20260505054041 | 50 | 18 | 0.0 | 3.0 | 0.00 | 0.00 | 0.00 | 91 | 1012.9 |
| 20260505053540 | 50 | 0 | 0.0 | 3.0 | 0.00 | 0.00 | 0.00 | 91 | 1013.0 |
| 20260505053051 | 50 | 0 | 0.0 | 0.0 | 0.00 | 0.00 | 0.00 | 91 | 1013.0 |
| 20260505052540 | 50 | 0 | 0.0 | 0.0 | 0.00 | 0.00 | 0.00 | 91 | 1013.0 |
| 20260505052040 | 50 | 0 | 0.0 | 0.0 | 0.00 | 0.00 | 0.00 | 91 | 1012.9 |
| 20260505051550 | 50 | 0 | 0.0 | 2.0 | 0.00 | 0.00 | 0.00 | 91 | 1012.9 |
| 20260505051041 | 50 | 0 | 0.0 | 2.0 | 0.00 | 0.00 | 0.00 | 91 | 1012.9 |
| 20260505050541 | 50 | 0 | 0.0 | 2.0 | 0.00 | 0.00 | 0.00 | 91 | 1012.9 |
| 20260505041552 | 50 | 0 | 0.0 | 4.0 | 0.00 | 0.00 | 0.00 | 90 | 1013.1 |
| 20260505041041 | 50 | 0 | 0.0 | 4.0 | 0.00 | 0.00 | 0.00 | 90 | 1013.1 |
| 20260505040542 | 50 | 0 | 0.0 | 4.0 | 0.00 | 0.00 | 0.00 | 90 | 1013.1 |
| 20260505040053 | 50 | 26 | 1.0 | 5.0 | 0.00 | 0.00 | 0.00 | 90 | 1013.2 |
| 20260505035542 | 50 | 0 | 0.0 | 5.0 | 0.00 | 0.00 | 0.00 | 90 | 1013.0 |
| 20260505035042 | 50 | 341 | 1.0 | 6.0 | 0.00 | 0.00 | 0.00 | 90 | 1013.1 |
| 20260505034546 | 50 | 339 | 2.0 | 6.0 | 0.00 | 0.00 | 0.00 | 90 | 1013.0 |
| 20260505034041 | 50 | 25 | 1.0 | 4.0 | 0.00 | 0.00 | 0.00 | 90 | 1013.1 |
| 20260505033542 | 50 | 328 | 1.0 | 4.0 | 0.00 | 0.00 | 0.00 | 90 | 1013.1 |
| 20260505033048 | 50 | 0 | 1.0 | 6.0 | 0.00 | 0.00 | 0.00 | 90 | 1013.0 |
| 20260505032541 | 50 | 0 | 1.0 | 6.0 | 0.00 | 0.00 | 0.00 | 90 | 1013.0 |
| 20260505032040 | 50 | 349 | 0.0 | 4.0 | 0.00 | 0.00 | 0.00 | 89 | 1013.2 |
| 20260505031548 | 50 | 0 | 1.0 | 4.0 | 0.00 | 0.00 | 0.00 | 89 | 1013.2 |
| 20260505031041 | 50 | 5 | 1.0 | 3.0 | 0.00 | 0.00 | 0.00 | 89 | 1013.1 |
| 20260505030541 | 50 | 351 | 0.0 | 3.0 | 0.00 | 0.00 | 0.00 | 89 | 1013.1 |
| 20260505030109 | 50 | 0 | 1.0 | 4.0 | 0.00 | 0.00 | 0.00 | 89 | 1012.9 |
| 20260505025542 | 50 | 355 | 0.0 | 4.0 | 0.00 | 0.00 | 0.00 | 89 | 1013.0 |
| 20260505025040 | 50 | 346 | 0.0 | 4.0 | 0.00 | 0.00 | 0.00 | 89 | 1013.0 |
| 20260505024558 | 50 | 0 | 1.0 | 4.0 | 0.00 | 0.00 | 0.00 | 89 | 1013.0 |
| 20260505024041 | 50 | 0 | 1.0 | 4.0 | 0.00 | 0.00 | 0.00 | 89 | 1013.0 |
| 20260505023541 | 50 | 352 | 0.0 | 3.0 | 0.00 | 0.00 | 0.00 | 88 | 1013.1 |
| 20260505023049 | 50 | 0 | 0.0 | 0.0 | 0.00 | 0.00 | 0.00 | 88 | 1013.0 |
| 20260505022540 | 50 | 0 | 0.0 | 0.0 | 0.00 | 0.00 | 0.00 | 88 | 1012.9 |
| 20260505022041 | 51 | 0 | 0.0 | 2.0 | 0.00 | 0.00 | 0.00 | 88 | 1013.0 |
| 20260505021546 | 51 | 0 | 0.0 | 4.0 | 0.00 | 0.00 | 0.00 | 88 | 1013.0 |
| 20260505021041 | 51 | 0 | 0.0 | 5.0 | 0.00 | 0.00 | 0.00 | 88 | 1012.9 |
| 20260505020541 | 51 | 17 | 0.0 | 5.0 | 0.00 | 0.00 | 0.00 | 88 | 1012.9 |
| 20260505020050 | 51 | 327 | 0.0 | 3.0 | 0.00 | 0.00 | 0.00 | 88 | 1013.1 |
| 20260505015541 | 51 | 0 | 0.0 | 4.0 | 0.00 | 0.00 | 0.00 | 88 | 1013.2 |
| 20260505015041 | 51 | 0 | 0.0 | 5.0 | 0.00 | 0.00 | 0.00 | 88 | 1013.2 |
| 20260505014603 | 51 | 23 | 1.0 | 5.0 | 0.00 | 0.00 | 0.00 | 88 | 1013.2 |
| 20260505014041 | 51 | 0 | 0.0 | 3.0 | 0.00 | 0.00 | 0.00 | 88 | 1013.2 |
| 20260505013540 | 51 | 331 | 0.0 | 3.0 | 0.00 | 0.00 | 0.00 | 88 | 1013.4 |
| 20260505013053 | 51 | 0 | 0.0 | 3.0 | 0.00 | 0.00 | 0.00 | 88 | 1013.4 |
| 20260505012541 | 51 | 0 | 0.0 | 3.0 | 0.00 | 0.00 | 0.00 | 88 | 1013.5 |
| 20260505012042 | 51 | 0 | 0.0 | 3.0 | 0.00 | 0.00 | 0.00 | 88 | 1013.6 |
| 20260505011556 | 51 | 330 | 0.0 | 3.0 | 0.00 | 0.00 | 0.00 | 88 | 1013.6 |
| 20260505011044 | 51 | 0 | 0.0 | 0.0 | 0.00 | 0.00 | 0.00 | 87 | 1013.6 |
| 20260505010541 | 51 | 0 | 0.0 | 1.0 | 0.00 | 0.00 | 0.00 | 87 | 1013.7 |
| 20260505010058 | 51 | 0 | 0.0 | 1.0 | 0.00 | 0.00 | 0.00 | 87 | 1013.7 |
| 20260505005544 | 51 | 0 | 0.0 | 3.0 | 0.00 | 0.00 | 0.00 | 87 | 1013.7 |
| 20260505005042 | 51 | 0 | 0.0 | 3.0 | 0.00 | 0.00 | 0.00 | 87 | 1013.7 |
| 20260505004553 | 51 | 0 | 0.0 | 3.0 | 0.00 | 0.00 | 0.00 | 87 | 1013.6 |
| 20260505004041 | 51 | 0 | 0.0 | 1.0 | 0.00 | 0.00 | 0.00 | 86 | 1013.7 |
| 20260505003541 | 51 | 0 | 0.0 | 2.0 | 0.00 | 0.00 | 0.00 | 86 | 1013.6 |
| 20260505003057 | 51 | 0 | 0.0 | 3.0 | 0.00 | 0.00 | 0.00 | 86 | 1013.6 |
| 20260505002541 | 52 | 0 | 0.0 | 3.0 | 0.00 | 0.00 | 0.00 | 86 | 1013.6 |
| 20260505002041 | 52 | 23 | 0.0 | 2.0 | 0.00 | 0.00 | 0.00 | 86 | 1013.6 |
| 20260505001545 | 52 | 352 | 0.0 | 3.0 | 0.00 | 0.00 | 0.00 | 86 | 1013.7 |
| 20260505001040 | 52 | 5 | 1.0 | 4.0 | 0.00 | 0.00 | 0.00 | 85 | 1013.8 |
| 20260505000541 | 52 | 355 | 1.0 | 4.0 | 0.00 | 0.00 | 0.00 | 85 | 1013.7 |
| 20260505000057 | 52 | 355 | 1.0 | 4.0 | 0.00 | 0.00 | 0.00 | 85 | 1013.7 |
| 20260504235543 | 53 | 0 | 0.0 | 4.0 | 0.00 | 0.00 | 0.00 | 85 | 1013.7 |
| 20260504235041 | 53 | 355 | 1.0 | 4.0 | 0.00 | 0.00 | 0.00 | 85 | 1013.8 |
| 20260504234550 | 53 | 0 | 0.0 | 5.0 | 0.00 | 0.00 | 0.00 | 85 | 1013.8 |
| 20260504234040 | 53 | 0 | 1.0 | 5.0 | 0.00 | 0.00 | 0.00 | 85 | 1014.0 |
| 20260504233545 | 53 | 9 | 0.0 | 5.0 | 0.00 | 0.00 | 0.00 | 84 | 1014.0 |
| 20260504233051 | 53 | 344 | 0.0 | 5.0 | 0.00 | 0.00 | 0.00 | 84 | 1014.0 |
| 20260504232542 | 53 | 340 | 1.0 | 5.0 | 0.00 | 0.00 | 0.00 | 84 | 1014.1 |
| 20260504232042 | 54 | 355 | 1.0 | 8.0 | 0.00 | 0.00 | 0.00 | 84 | 1014.0 |
| 20260504231548 | 54 | 349 | 2.0 | 8.0 | 0.00 | 0.00 | 0.00 | 84 | 1014.0 |
| 20260504231041 | 54 | 27 | 3.0 | 7.0 | 0.00 | 0.00 | 0.00 | 84 | 1014.0 |
| 20260504230541 | 54 | 18 | 1.0 | 6.0 | 0.00 | 0.00 | 0.00 | 84 | 1014.0 |
| 20260504230050 | 54 | 15 | 2.0 | 7.0 | 0.00 | 0.00 | 0.00 | 84 | 1014.0 |
| 20260504225541 | 54 | 5 | 2.0 | 8.0 | 0.00 | 0.00 | 0.00 | 84 | 1014.1 |
| 20260504225040 | 54 | 319 | 2.0 | 8.0 | 0.00 | 0.00 | 0.00 | 84 | 1014.0 |
| 20260504224548 | 54 | 40 | 3.0 | 8.0 | 0.00 | 0.00 | 0.00 | 84 | 1014.1 |
| 20260504224041 | 54 | 13 | 3.0 | 8.0 | 0.00 | 0.00 | 0.00 | 84 | 1014.1 |
| 20260504223544 | 54 | 332 | 3.0 | 10.0 | 0.00 | 0.00 | 0.00 | 84 | 1014.1 |
| 20260504223107 | 54 | 360 | 1.0 | 10.0 | 0.00 | 0.00 | 0.00 | 83 | 1014.2 |
| 20260504222541 | 54 | 5 | 2.0 | 10.0 | 0.00 | 0.00 | 0.00 | 83 | 1014.1 |
| 20260504222041 | 54 | 45 | 3.0 | 10.0 | 0.00 | 0.00 | 0.00 | 83 | 1014.2 |
| 20260504221553 | 54 | 323 | 3.0 | 8.0 | 0.00 | 0.00 | 0.00 | 83 | 1014.3 |
| 20260504221041 | 54 | 5 | 3.0 | 8.0 | 0.00 | 0.00 | 0.00 | 83 | 1014.2 |
| 20260504220541 | 55 | 38 | 3.0 | 8.0 | 0.00 | 0.00 | 0.00 | 83 | 1014.3 |
| 20260504220050 | 55 | 355 | 2.0 | 9.0 | 0.00 | 0.00 | 0.00 | 83 | 1014.4 |
| 20260504215545 | 55 | 36 | 4.0 | 9.0 | 0.00 | 0.00 | 0.00 | 83 | 1014.5 |
| 20260504215041 | 55 | 338 | 3.0 | 8.0 | 0.00 | 0.00 | 0.00 | 83 | 1014.4 |
| 20260504214544 | 55 | 349 | 4.0 | 9.0 | 0.00 | 0.00 | 0.00 | 83 | 1014.3 |
| 20260504214045 | 55 | 338 | 2.0 | 11.0 | 0.00 | 0.00 | 0.00 | 83 | 1014.3 |
| 20260504213542 | 55 | 9 | 3.0 | 11.0 | 0.00 | 0.00 | 0.00 | 83 | 1014.3 |
| 20260504213056 | 55 | 21 | 4.0 | 9.0 | 0.00 | 0.00 | 0.00 | 83 | 1014.3 |
| 20260504212545 | 55 | 338 | 3.0 | 7.0 | 0.00 | 0.00 | 0.00 | 83 | 1014.3 |
| 20260504212041 | 55 | 21 | 1.0 | 5.0 | 0.00 | 0.00 | 0.00 | 83 | 1014.2 |
| 20260504211634 | 55 | 5 | 2.0 | 5.0 | 0.00 | 0.00 | 0.00 | 82 | 1014.2 |
| 20260504211040 | 56 | 5 | 1.0 | 5.0 | 0.00 | 0.00 | 0.00 | 82 | 1014.2 |
| 20260504210541 | 56 | 35 | 2.0 | 5.0 | 0.00 | 0.00 | 0.00 | 82 | 1014.2 |
| 20260504210053 | 56 | 0 | 1.0 | 8.0 | 0.00 | 0.00 | 0.00 | 82 | 1014.3 |
| 20260504205541 | 56 | 5 | 1.0 | 8.0 | 0.00 | 0.00 | 0.00 | 82 | 1014.3 |
| 20260504205040 | 56 | 345 | 3.0 | 8.0 | 0.00 | 0.00 | 0.00 | 82 | 1014.3 |
| 20260504204550 | 56 | 5 | 2.0 | 8.0 | 0.00 | 0.00 | 0.00 | 82 | 1014.3 |
| 20260504204040 | 56 | 343 | 2.0 | 8.0 | 0.00 | 0.00 | 0.00 | 82 | 1014.2 |
| 20260504203542 | 56 | 23 | 2.0 | 8.0 | 0.00 | 0.00 | 0.00 | 82 | 1014.1 |
| 20260504203049 | 56 | 11 | 2.0 | 8.0 | 0.00 | 0.00 | 0.00 | 82 | 1014.1 |
| 20260504202541 | 56 | 26 | 3.0 | 8.0 | 0.00 | 0.00 | 0.00 | 82 | 1014.1 |
| 20260504202041 | 56 | 348 | 2.0 | 9.0 | 0.00 | 0.00 | 0.00 | 82 | 1014.1 |
| 20260504201550 | 56 | 327 | 3.0 | 9.0 | 0.00 | 0.00 | 0.00 | 82 | 1014.1 |
| 20260504201041 | 57 | 347 | 4.0 | 8.0 | 0.00 | 0.00 | 0.00 | 82 | 1014.1 |
| 20260504200542 | 57 | 341 | 2.0 | 8.0 | 0.00 | 0.00 | 0.00 | 82 | 1014.2 |
| 20260504200053 | 57 | 0 | 3.0 | 8.0 | 0.00 | 0.00 | 0.00 | 82 | 1014.2 |